sensor_id;sensor_type;location;lat;lon;timestamp;temperature;humidity
28763;DHT22;15918;51.270;6.522;2022-11-15T00:01:41;12.10;68.50
28763;DHT22;15918;51.270;6.522;2022-11-15T00:04:06;12.00;68.60
28763;DHT22;15918;51.270;6.522;2022-11-15T00:06:32;12.00;68.60
28763;DHT22;15918;51.270;6.522;2022-11-15T00:08:58;12.00;68.60
28763;DHT22;15918;51.270;6.522;2022-11-15T00:11:24;12.00;68.60
28763;DHT22;15918;51.270;6.522;2022-11-15T00:13:50;12.00;68.60
28763;DHT22;15918;51.270;6.522;2022-11-15T00:16:16;12.00;68.70
28763;DHT22;15918;51.270;6.522;2022-11-15T00:18:41;12.00;68.80
28763;DHT22;15918;51.270;6.522;2022-11-15T00:21:10;12.00;68.80
28763;DHT22;15918;51.270;6.522;2022-11-15T00:23:36;12.00;68.80
28763;DHT22;15918;51.270;6.522;2022-11-15T00:26:02;12.00;68.80
28763;DHT22;15918;51.270;6.522;2022-11-15T00:28:28;12.10;69.00
28763;DHT22;15918;51.270;6.522;2022-11-15T00:31:00;12.00;68.80
28763;DHT22;15918;51.270;6.522;2022-11-15T00:33:26;12.10;68.90
28763;DHT22;15918;51.270;6.522;2022-11-15T00:35:51;12.00;68.90
28763;DHT22;15918;51.270;6.522;2022-11-15T00:38:17;12.10;69.00
28763;DHT22;15918;51.270;6.522;2022-11-15T00:40:42;12.10;69.10
28763;DHT22;15918;51.270;6.522;2022-11-15T00:43:08;12.10;69.10
28763;DHT22;15918;51.270;6.522;2022-11-15T00:45:34;12.10;69.10
28763;DHT22;15918;51.270;6.522;2022-11-15T00:47:59;12.10;69.10
28763;DHT22;15918;51.270;6.522;2022-11-15T00:50:25;12.10;69.20
28763;DHT22;15918;51.270;6.522;2022-11-15T00:52:50;12.10;69.10
28763;DHT22;15918;51.270;6.522;2022-11-15T00:55:17;12.10;69.10
28763;DHT22;15918;51.270;6.522;2022-11-15T00:57:43;12.10;69.30
28763;DHT22;15918;51.270;6.522;2022-11-15T01:00:09;12.10;69.30
28763;DHT22;15918;51.270;6.522;2022-11-15T01:02:35;12.10;69.30
28763;DHT22;15918;51.270;6.522;2022-11-15T01:05:00;12.10;69.40
28763;DHT22;15918;51.270;6.522;2022-11-15T01:07:26;12.10;69.40
28763;DHT22;15918;51.270;6.522;2022-11-15T01:09:51;12.10;69.40
28763;DHT22;15918;51.270;6.522;2022-11-15T01:12:17;12.20;69.40
28763;DHT22;15918;51.270;6.522;2022-11-15T01:14:43;12.10;69.30
28763;DHT22;15918;51.270;6.522;2022-11-15T01:17:08;12.20;69.40
28763;DHT22;15918;51.270;6.522;2022-11-15T01:19:34;12.20;69.40
28763;DHT22;15918;51.270;6.522;2022-11-15T01:21:59;12.20;69.40
28763;DHT22;15918;51.270;6.522;2022-11-15T01:24:25;12.20;69.40
28763;DHT22;15918;51.270;6.522;2022-11-15T01:26:50;12.20;69.40
28763;DHT22;15918;51.270;6.522;2022-11-15T01:29:16;12.20;70.20
28763;DHT22;15918;51.270;6.522;2022-11-15T01:31:42;12.20;69.50
28763;DHT22;15918;51.270;6.522;2022-11-15T01:34:07;12.20;69.40
28763;DHT22;15918;51.270;6.522;2022-11-15T01:36:33;12.20;69.50
28763;DHT22;15918;51.270;6.522;2022-11-15T01:38:59;12.20;69.60
28763;DHT22;15918;51.270;6.522;2022-11-15T01:41:27;12.20;69.80
28763;DHT22;15918;51.270;6.522;2022-11-15T01:43:55;12.20;69.90
28763;DHT22;15918;51.270;6.522;2022-11-15T01:48:47;12.20;69.70
28763;DHT22;15918;51.270;6.522;2022-11-15T01:51:15;12.30;69.70
28763;DHT22;15918;51.270;6.522;2022-11-15T01:53:45;12.20;69.70
28763;DHT22;15918;51.270;6.522;2022-11-15T01:56:15;12.20;69.70
28763;DHT22;15918;51.270;6.522;2022-11-15T01:58:43;12.30;69.70
28763;DHT22;15918;51.270;6.522;2022-11-15T02:01:12;12.20;69.80
28763;DHT22;15918;51.270;6.522;2022-11-15T02:03:51;12.20;69.90
28763;DHT22;15918;51.270;6.522;2022-11-15T02:06:21;12.30;70.30
28763;DHT22;15918;51.270;6.522;2022-11-15T02:08:47;12.30;69.90
28763;DHT22;15918;51.270;6.522;2022-11-15T02:11:12;12.30;70.00
28763;DHT22;15918;51.270;6.522;2022-11-15T02:13:39;12.30;70.10
28763;DHT22;15918;51.270;6.522;2022-11-15T02:18:37;12.30;70.10
28763;DHT22;15918;51.270;6.522;2022-11-15T02:21:12;12.30;70.10
28763;DHT22;15918;51.270;6.522;2022-11-15T02:34:38;12.30;70.20
28763;DHT22;15918;51.270;6.522;2022-11-15T02:37:18;12.30;70.30
28763;DHT22;15918;51.270;6.522;2022-11-15T02:39:51;12.30;70.30
28763;DHT22;15918;51.270;6.522;2022-11-15T02:42:30;12.30;70.50
28763;DHT22;15918;51.270;6.522;2022-11-15T02:45:21;12.30;70.40
28763;DHT22;15918;51.270;6.522;2022-11-15T02:47:50;12.30;70.50
28763;DHT22;15918;51.270;6.522;2022-11-15T02:50:21;12.30;70.70
28763;DHT22;15918;51.270;6.522;2022-11-15T02:52:49;12.30;70.60
28763;DHT22;15918;51.270;6.522;2022-11-15T02:55:38;12.30;70.70
28763;DHT22;15918;51.270;6.522;2022-11-15T03:01:01;12.40;70.60
28763;DHT22;15918;51.270;6.522;2022-11-15T03:06:53;12.40;70.70
28763;DHT22;15918;51.270;6.522;2022-11-15T03:10:08;12.40;70.70
28763;DHT22;15918;51.270;6.522;2022-11-15T03:12:53;12.40;71.10
28763;DHT22;15918;51.270;6.522;2022-11-15T03:15:26;12.40;71.10
28763;DHT22;15918;51.270;6.522;2022-11-15T03:17:58;12.40;71.40
28763;DHT22;15918;51.270;6.522;2022-11-15T03:20:26;12.40;71.40
28763;DHT22;15918;51.270;6.522;2022-11-15T03:22:56;12.40;71.40
28763;DHT22;15918;51.270;6.522;2022-11-15T03:25:24;12.40;71.60
28763;DHT22;15918;51.270;6.522;2022-11-15T03:27:54;12.40;71.70
28763;DHT22;15918;51.270;6.522;2022-11-15T03:30:21;12.40;71.80
28763;DHT22;15918;51.270;6.522;2022-11-15T03:32:51;12.40;71.80
28763;DHT22;15918;51.270;6.522;2022-11-15T03:35:23;12.50;71.90
28763;DHT22;15918;51.270;6.522;2022-11-15T03:40:27;12.50;72.00
28763;DHT22;15918;51.270;6.522;2022-11-15T03:45:35;12.40;72.40
28763;DHT22;15918;51.270;6.522;2022-11-15T03:48:12;12.40;72.20
28763;DHT22;15918;51.270;6.522;2022-11-15T03:50:39;12.50;72.30
28763;DHT22;15918;51.270;6.522;2022-11-15T03:53:05;12.50;72.30
28763;DHT22;15918;51.270;6.522;2022-11-15T03:55:32;12.50;72.30
28763;DHT22;15918;51.270;6.522;2022-11-15T03:57:59;12.50;72.10
28763;DHT22;15918;51.270;6.522;2022-11-15T04:00:24;12.50;72.50
28763;DHT22;15918;51.270;6.522;2022-11-15T04:02:50;12.50;72.60
28763;DHT22;15918;51.270;6.522;2022-11-15T04:05:16;12.50;72.70
28763;DHT22;15918;51.270;6.522;2022-11-15T04:07:41;12.50;72.50
28763;DHT22;15918;51.270;6.522;2022-11-15T04:10:08;12.50;72.50
28763;DHT22;15918;51.270;6.522;2022-11-15T04:12:39;12.60;72.80
28763;DHT22;15918;51.270;6.522;2022-11-15T04:15:10;12.60;72.80
28763;DHT22;15918;51.270;6.522;2022-11-15T04:17:47;12.50;72.80
28763;DHT22;15918;51.270;6.522;2022-11-15T04:20:19;12.60;72.80
28763;DHT22;15918;51.270;6.522;2022-11-15T04:23:13;12.60;72.80
28763;DHT22;15918;51.270;6.522;2022-11-15T04:25:59;12.60;72.80
28763;DHT22;15918;51.270;6.522;2022-11-15T04:28:26;12.60;72.80
28763;DHT22;15918;51.270;6.522;2022-11-15T04:30:52;12.60;72.80
28763;DHT22;15918;51.270;6.522;2022-11-15T04:33:17;12.60;73.00
28763;DHT22;15918;51.270;6.522;2022-11-15T04:35:43;12.60;72.90
28763;DHT22;15918;51.270;6.522;2022-11-15T04:38:29;12.60;73.10
28763;DHT22;15918;51.270;6.522;2022-11-15T04:40:55;12.60;73.00
28763;DHT22;15918;51.270;6.522;2022-11-15T04:43:20;12.60;73.10
28763;DHT22;15918;51.270;6.522;2022-11-15T04:45:46;12.60;73.00
28763;DHT22;15918;51.270;6.522;2022-11-15T04:48:11;12.70;72.80
28763;DHT22;15918;51.270;6.522;2022-11-15T04:50:37;12.70;73.10
28763;DHT22;15918;51.270;6.522;2022-11-15T04:53:02;12.70;73.20
28763;DHT22;15918;51.270;6.522;2022-11-15T04:55:28;12.70;73.00
28763;DHT22;15918;51.270;6.522;2022-11-15T04:58:00;12.70;72.80
28763;DHT22;15918;51.270;6.522;2022-11-15T05:00:27;12.70;73.00
28763;DHT22;15918;51.270;6.522;2022-11-15T05:02:52;12.70;72.80
28763;DHT22;15918;51.270;6.522;2022-11-15T05:05:37;12.70;72.70
28763;DHT22;15918;51.270;6.522;2022-11-15T05:08:03;12.70;72.60
28763;DHT22;15918;51.270;6.522;2022-11-15T05:10:29;12.70;72.40
28763;DHT22;15918;51.270;6.522;2022-11-15T05:12:54;12.70;72.60
28763;DHT22;15918;51.270;6.522;2022-11-15T05:15:20;12.70;72.40
28763;DHT22;15918;51.270;6.522;2022-11-15T05:17:45;12.70;72.50
28763;DHT22;15918;51.270;6.522;2022-11-15T05:20:12;12.70;72.50
28763;DHT22;15918;51.270;6.522;2022-11-15T05:22:38;12.70;72.70
28763;DHT22;15918;51.270;6.522;2022-11-15T05:25:04;12.70;72.90
28763;DHT22;15918;51.270;6.522;2022-11-15T05:27:30;12.70;73.00
28763;DHT22;15918;51.270;6.522;2022-11-15T05:29:56;12.80;73.10
28763;DHT22;15918;51.270;6.522;2022-11-15T05:32:21;12.80;72.90
28763;DHT22;15918;51.270;6.522;2022-11-15T05:34:47;12.80;73.10
28763;DHT22;15918;51.270;6.522;2022-11-15T05:37:13;12.80;73.10
28763;DHT22;15918;51.270;6.522;2022-11-15T05:39:39;12.80;73.30
28763;DHT22;15918;51.270;6.522;2022-11-15T05:42:11;12.80;73.30
28763;DHT22;15918;51.270;6.522;2022-11-15T05:44:39;12.80;73.50
28763;DHT22;15918;51.270;6.522;2022-11-15T05:47:09;12.80;73.50
28763;DHT22;15918;51.270;6.522;2022-11-15T05:49:38;12.80;73.50
28763;DHT22;15918;51.270;6.522;2022-11-15T05:52:07;12.80;73.50
28763;DHT22;15918;51.270;6.522;2022-11-15T05:54:33;12.80;73.60
28763;DHT22;15918;51.270;6.522;2022-11-15T05:57:00;12.80;73.80
28763;DHT22;15918;51.270;6.522;2022-11-15T05:59:29;12.80;73.60
28763;DHT22;15918;51.270;6.522;2022-11-15T06:01:56;12.80;73.50
28763;DHT22;15918;51.270;6.522;2022-11-15T06:04:21;12.80;73.40
28763;DHT22;15918;51.270;6.522;2022-11-15T06:06:47;12.90;73.40
28763;DHT22;15918;51.270;6.522;2022-11-15T06:09:12;12.90;73.40
28763;DHT22;15918;51.270;6.522;2022-11-15T06:11:38;12.80;73.50
28763;DHT22;15918;51.270;6.522;2022-11-15T06:14:03;12.80;73.50
28763;DHT22;15918;51.270;6.522;2022-11-15T06:16:29;12.90;73.50
28763;DHT22;15918;51.270;6.522;2022-11-15T06:18:54;12.90;73.50
28763;DHT22;15918;51.270;6.522;2022-11-15T06:21:20;12.90;73.80
28763;DHT22;15918;51.270;6.522;2022-11-15T06:23:46;12.90;73.70
28763;DHT22;15918;51.270;6.522;2022-11-15T06:26:11;12.90;74.40
28763;DHT22;15918;51.270;6.522;2022-11-15T06:28:37;12.90;73.50
28763;DHT22;15918;51.270;6.522;2022-11-15T06:31:08;12.90;73.70
28763;DHT22;15918;51.270;6.522;2022-11-15T06:33:33;12.90;73.60
28763;DHT22;15918;51.270;6.522;2022-11-15T06:36:10;12.90;73.40
28763;DHT22;15918;51.270;6.522;2022-11-15T06:38:38;12.90;73.60
28763;DHT22;15918;51.270;6.522;2022-11-15T06:41:06;12.90;73.80
28763;DHT22;15918;51.270;6.522;2022-11-15T06:43:33;12.90;73.90
28763;DHT22;15918;51.270;6.522;2022-11-15T06:46:00;12.90;74.20
28763;DHT22;15918;51.270;6.522;2022-11-15T06:48:26;13.00;74.10
28763;DHT22;15918;51.270;6.522;2022-11-15T06:50:57;12.90;73.80
28763;DHT22;15918;51.270;6.522;2022-11-15T06:53:23;13.00;73.80
28763;DHT22;15918;51.270;6.522;2022-11-15T06:55:49;12.90;73.80
28763;DHT22;15918;51.270;6.522;2022-11-15T06:58:15;12.90;73.90
28763;DHT22;15918;51.270;6.522;2022-11-15T07:00:41;13.00;74.10
28763;DHT22;15918;51.270;6.522;2022-11-15T07:03:07;13.00;74.20
28763;DHT22;15918;51.270;6.522;2022-11-15T07:05:33;12.90;74.20
28763;DHT22;15918;51.270;6.522;2022-11-15T07:07:59;13.00;74.30
28763;DHT22;15918;51.270;6.522;2022-11-15T07:10:25;13.00;74.30
28763;DHT22;15918;51.270;6.522;2022-11-15T07:12:52;13.00;74.30
28763;DHT22;15918;51.270;6.522;2022-11-15T07:15:20;13.00;75.10
28763;DHT22;15918;51.270;6.522;2022-11-15T07:17:46;13.00;75.10
28763;DHT22;15918;51.270;6.522;2022-11-15T07:20:12;13.00;74.30
28763;DHT22;15918;51.270;6.522;2022-11-15T07:22:41;13.00;74.30
28763;DHT22;15918;51.270;6.522;2022-11-15T07:25:07;13.00;74.40
28763;DHT22;15918;51.270;6.522;2022-11-15T07:27:33;13.00;74.40
28763;DHT22;15918;51.270;6.522;2022-11-15T07:29:59;13.00;74.40
28763;DHT22;15918;51.270;6.522;2022-11-15T07:32:25;13.00;74.40
28763;DHT22;15918;51.270;6.522;2022-11-15T07:34:50;13.00;74.40
28763;DHT22;15918;51.270;6.522;2022-11-15T07:37:16;13.00;74.50
28763;DHT22;15918;51.270;6.522;2022-11-15T07:39:42;13.00;74.50
28763;DHT22;15918;51.270;6.522;2022-11-15T07:42:08;13.00;74.50
28763;DHT22;15918;51.270;6.522;2022-11-15T07:44:52;13.00;74.60
28763;DHT22;15918;51.270;6.522;2022-11-15T07:47:18;13.00;74.70
28763;DHT22;15918;51.270;6.522;2022-11-15T07:49:44;13.00;74.70
28763;DHT22;15918;51.270;6.522;2022-11-15T07:52:11;13.00;74.70
28763;DHT22;15918;51.270;6.522;2022-11-15T07:54:36;13.00;74.80
28763;DHT22;15918;51.270;6.522;2022-11-15T07:57:02;13.00;74.70
28763;DHT22;15918;51.270;6.522;2022-11-15T07:59:28;13.10;74.80
28763;DHT22;15918;51.270;6.522;2022-11-15T08:01:53;13.00;74.70
28763;DHT22;15918;51.270;6.522;2022-11-15T08:04:19;13.10;74.80
28763;DHT22;15918;51.270;6.522;2022-11-15T08:06:44;13.10;74.80
28763;DHT22;15918;51.270;6.522;2022-11-15T08:09:10;13.10;74.70
28763;DHT22;15918;51.270;6.522;2022-11-15T08:11:35;13.10;74.60
28763;DHT22;15918;51.270;6.522;2022-11-15T08:14:01;13.10;74.50
28763;DHT22;15918;51.270;6.522;2022-11-15T08:16:27;13.10;74.70
28763;DHT22;15918;51.270;6.522;2022-11-15T08:18:52;13.10;74.20
28763;DHT22;15918;51.270;6.522;2022-11-15T08:21:19;13.10;74.00
28763;DHT22;15918;51.270;6.522;2022-11-15T08:23:45;13.10;73.90
28763;DHT22;15918;51.270;6.522;2022-11-15T08:26:11;13.10;73.90
28763;DHT22;15918;51.270;6.522;2022-11-15T08:28:37;13.10;73.80
28763;DHT22;15918;51.270;6.522;2022-11-15T08:31:03;13.10;74.00
28763;DHT22;15918;51.270;6.522;2022-11-15T08:33:30;13.10;74.10
28763;DHT22;15918;51.270;6.522;2022-11-15T08:35:57;13.10;74.20
28763;DHT22;15918;51.270;6.522;2022-11-15T08:38:23;13.10;74.10
28763;DHT22;15918;51.270;6.522;2022-11-15T08:40:50;13.10;73.90
28763;DHT22;15918;51.270;6.522;2022-11-15T08:43:16;13.20;73.90
28763;DHT22;15918;51.270;6.522;2022-11-15T08:45:41;13.20;73.70
28763;DHT22;15918;51.270;6.522;2022-11-15T08:48:07;13.10;73.60
28763;DHT22;15918;51.270;6.522;2022-11-15T08:50:32;13.20;73.80
28763;DHT22;15918;51.270;6.522;2022-11-15T08:53:04;13.10;73.70
28763;DHT22;15918;51.270;6.522;2022-11-15T08:55:30;13.20;73.60
28763;DHT22;15918;51.270;6.522;2022-11-15T08:57:57;13.20;73.60
28763;DHT22;15918;51.270;6.522;2022-11-15T09:00:23;13.20;73.70
28763;DHT22;15918;51.270;6.522;2022-11-15T09:02:49;13.20;73.80
28763;DHT22;15918;51.270;6.522;2022-11-15T09:05:14;13.20;73.90
28763;DHT22;15918;51.270;6.522;2022-11-15T09:07:41;13.20;74.00
28763;DHT22;15918;51.270;6.522;2022-11-15T09:10:06;13.20;73.90
28763;DHT22;15918;51.270;6.522;2022-11-15T09:12:32;13.20;73.90
28763;DHT22;15918;51.270;6.522;2022-11-15T09:14:58;13.20;73.80
28763;DHT22;15918;51.270;6.522;2022-11-15T09:17:23;13.20;73.60
28763;DHT22;15918;51.270;6.522;2022-11-15T09:19:49;13.20;73.60
28763;DHT22;15918;51.270;6.522;2022-11-15T09:22:14;13.20;73.50
28763;DHT22;15918;51.270;6.522;2022-11-15T09:24:40;13.20;73.40
28763;DHT22;15918;51.270;6.522;2022-11-15T09:27:06;13.20;73.60
28763;DHT22;15918;51.270;6.522;2022-11-15T09:29:31;13.20;73.70
28763;DHT22;15918;51.270;6.522;2022-11-15T09:31:57;13.20;73.60
28763;DHT22;15918;51.270;6.522;2022-11-15T09:34:22;13.20;73.60
28763;DHT22;15918;51.270;6.522;2022-11-15T09:36:48;13.20;73.50
28763;DHT22;15918;51.270;6.522;2022-11-15T09:39:13;13.20;73.60
28763;DHT22;15918;51.270;6.522;2022-11-15T09:42:01;13.30;73.80
28763;DHT22;15918;51.270;6.522;2022-11-15T09:50:13;13.30;74.20
28763;DHT22;15918;51.270;6.522;2022-11-15T09:52:42;13.30;74.20
28763;DHT22;15918;51.270;6.522;2022-11-15T09:55:10;13.30;74.30
28763;DHT22;15918;51.270;6.522;2022-11-15T09:57:45;13.30;74.10
28763;DHT22;15918;51.270;6.522;2022-11-15T10:00:31;13.30;74.10
28763;DHT22;15918;51.270;6.522;2022-11-15T10:03:14;13.30;74.00
28763;DHT22;15918;51.270;6.522;2022-11-15T10:05:46;13.40;74.00
28763;DHT22;15918;51.270;6.522;2022-11-15T10:10:55;13.40;74.00
28763;DHT22;15918;51.270;6.522;2022-11-15T10:13:27;13.40;74.00
28763;DHT22;15918;51.270;6.522;2022-11-15T10:16:01;13.40;73.80
28763;DHT22;15918;51.270;6.522;2022-11-15T10:18:47;13.50;73.90
28763;DHT22;15918;51.270;6.522;2022-11-15T10:21:21;13.50;73.70
28763;DHT22;15918;51.270;6.522;2022-11-15T10:23:50;13.50;73.60
28763;DHT22;15918;51.270;6.522;2022-11-15T10:26:17;13.50;73.50
28763;DHT22;15918;51.270;6.522;2022-11-15T10:28:43;13.50;73.40
28763;DHT22;15918;51.270;6.522;2022-11-15T10:31:26;13.60;73.40
28763;DHT22;15918;51.270;6.522;2022-11-15T10:34:16;13.60;73.00
28763;DHT22;15918;51.270;6.522;2022-11-15T10:39:19;13.60;72.90
28763;DHT22;15918;51.270;6.522;2022-11-15T10:41:44;13.60;72.80
28763;DHT22;15918;51.270;6.522;2022-11-15T10:46:43;13.70;72.50
28763;DHT22;15918;51.270;6.522;2022-11-15T10:49:20;13.70;72.50
28763;DHT22;15918;51.270;6.522;2022-11-15T10:59:45;13.80;72.00
28763;DHT22;15918;51.270;6.522;2022-11-15T11:05:36;13.90;71.60
28763;DHT22;15918;51.270;6.522;2022-11-15T11:08:22;13.80;71.50
28763;DHT22;15918;51.270;6.522;2022-11-15T11:10:59;13.90;71.20
28763;DHT22;15918;51.270;6.522;2022-11-15T11:16:20;13.90;70.80
28763;DHT22;15918;51.270;6.522;2022-11-15T11:27:02;14.00;70.00
28763;DHT22;15918;51.270;6.522;2022-11-15T11:43:16;14.10;69.10
28763;DHT22;15918;51.270;6.522;2022-11-15T11:46:25;14.10;69.00
28763;DHT22;15918;51.270;6.522;2022-11-15T11:49:12;14.20;68.90
28763;DHT22;15918;51.270;6.522;2022-11-15T11:51:48;14.20;68.70
28763;DHT22;15918;51.270;6.522;2022-11-15T11:54:22;14.20;68.60
28763;DHT22;15918;51.270;6.522;2022-11-15T11:56:53;14.20;68.30
28763;DHT22;15918;51.270;6.522;2022-11-15T11:59:28;14.20;68.10
28763;DHT22;15918;51.270;6.522;2022-11-15T12:01:57;14.20;67.90
28763;DHT22;15918;51.270;6.522;2022-11-15T12:04:36;14.20;67.70
28763;DHT22;15918;51.270;6.522;2022-11-15T12:07:17;14.20;67.50
28763;DHT22;15918;51.270;6.522;2022-11-15T12:12:49;14.30;67.60
28763;DHT22;15918;51.270;6.522;2022-11-15T12:15:23;14.30;67.50
28763;DHT22;15918;51.270;6.522;2022-11-15T12:17:50;14.30;67.40
28763;DHT22;15918;51.270;6.522;2022-11-15T12:20:18;14.30;67.40
28763;DHT22;15918;51.270;6.522;2022-11-15T12:25:33;14.30;66.50
28763;DHT22;15918;51.270;6.522;2022-11-15T12:28:25;14.30;67.10
28763;DHT22;15918;51.270;6.522;2022-11-15T12:30:59;14.30;66.80
28763;DHT22;15918;51.270;6.522;2022-11-15T12:33:40;14.30;66.60
28763;DHT22;15918;51.270;6.522;2022-11-15T12:39:00;14.30;66.20
28763;DHT22;15918;51.270;6.522;2022-11-15T12:41:33;14.40;66.10
28763;DHT22;15918;51.270;6.522;2022-11-15T12:43:59;14.30;66.20
28763;DHT22;15918;51.270;6.522;2022-11-15T12:48:56;14.40;66.00
28763;DHT22;15918;51.270;6.522;2022-11-15T12:59:52;14.40;66.50
28763;DHT22;15918;51.270;6.522;2022-11-15T13:02:44;14.50;65.40
28763;DHT22;15918;51.270;6.522;2022-11-15T13:17:50;14.50;65.40
28763;DHT22;15918;51.270;6.522;2022-11-15T13:30:53;14.50;65.50
28763;DHT22;15918;51.270;6.522;2022-11-15T13:33:36;14.50;65.50
28763;DHT22;15918;51.270;6.522;2022-11-15T13:38:33;14.60;65.60
28763;DHT22;15918;51.270;6.522;2022-11-15T13:41:13;14.60;65.70
28763;DHT22;15918;51.270;6.522;2022-11-15T13:43:39;14.60;65.30
28763;DHT22;15918;51.270;6.522;2022-11-15T13:46:21;14.60;65.50
28763;DHT22;15918;51.270;6.522;2022-11-15T13:48:55;14.60;65.50
28763;DHT22;15918;51.270;6.522;2022-11-15T13:54:01;14.60;65.50
28763;DHT22;15918;51.270;6.522;2022-11-15T13:56:29;14.60;65.70
28763;DHT22;15918;51.270;6.522;2022-11-15T13:58:56;14.50;65.80
28763;DHT22;15918;51.270;6.522;2022-11-15T14:01:22;14.50;66.10
28763;DHT22;15918;51.270;6.522;2022-11-15T14:03:58;14.60;66.00
28763;DHT22;15918;51.270;6.522;2022-11-15T14:06:28;14.60;65.90
28763;DHT22;15918;51.270;6.522;2022-11-15T14:11:56;14.60;65.80
28763;DHT22;15918;51.270;6.522;2022-11-15T14:14:27;14.60;66.10
28763;DHT22;15918;51.270;6.522;2022-11-15T14:17:00;14.60;66.10
28763;DHT22;15918;51.270;6.522;2022-11-15T14:19:35;14.60;66.10
28763;DHT22;15918;51.270;6.522;2022-11-15T14:24:43;14.60;66.10
28763;DHT22;15918;51.270;6.522;2022-11-15T14:27:19;14.60;66.20
28763;DHT22;15918;51.270;6.522;2022-11-15T14:29:46;14.60;66.20
28763;DHT22;15918;51.270;6.522;2022-11-15T14:32:26;14.60;66.20
28763;DHT22;15918;51.270;6.522;2022-11-15T14:34:58;14.60;66.10
28763;DHT22;15918;51.270;6.522;2022-11-15T14:37:26;14.60;66.20
28763;DHT22;15918;51.270;6.522;2022-11-15T14:39:53;14.60;66.10
28763;DHT22;15918;51.270;6.522;2022-11-15T14:42:20;14.60;66.10
28763;DHT22;15918;51.270;6.522;2022-11-15T14:44:46;14.60;66.10
28763;DHT22;15918;51.270;6.522;2022-11-15T14:47:12;14.60;66.10
28763;DHT22;15918;51.270;6.522;2022-11-15T14:49:38;14.60;66.10
28763;DHT22;15918;51.270;6.522;2022-11-15T14:52:41;14.60;66.20
28763;DHT22;15918;51.270;6.522;2022-11-15T14:55:02;14.70;66.20
28763;DHT22;15918;51.270;6.522;2022-11-15T14:57:29;14.60;66.30
28763;DHT22;15918;51.270;6.522;2022-11-15T14:59:55;14.60;66.30
28763;DHT22;15918;51.270;6.522;2022-11-15T15:02:24;14.60;66.30
28763;DHT22;15918;51.270;6.522;2022-11-15T15:04:50;14.70;66.50
28763;DHT22;15918;51.270;6.522;2022-11-15T15:07:16;14.70;66.50
28763;DHT22;15918;51.270;6.522;2022-11-15T15:09:43;14.60;66.40
28763;DHT22;15918;51.270;6.522;2022-11-15T15:12:16;14.70;66.50
28763;DHT22;15918;51.270;6.522;2022-11-15T15:14:42;14.70;66.50
28763;DHT22;15918;51.270;6.522;2022-11-15T15:17:08;14.60;66.50
28763;DHT22;15918;51.270;6.522;2022-11-15T15:19:33;14.70;66.60
28763;DHT22;15918;51.270;6.522;2022-11-15T15:21:59;14.70;66.60
28763;DHT22;15918;51.270;6.522;2022-11-15T15:24:24;14.70;66.60
28763;DHT22;15918;51.270;6.522;2022-11-15T15:26:50;14.70;66.70
28763;DHT22;15918;51.270;6.522;2022-11-15T15:29:15;14.70;66.70
28763;DHT22;15918;51.270;6.522;2022-11-15T15:31:41;14.70;66.70
28763;DHT22;15918;51.270;6.522;2022-11-15T15:34:06;14.70;66.70
28763;DHT22;15918;51.270;6.522;2022-11-15T15:36:32;14.70;66.80
28763;DHT22;15918;51.270;6.522;2022-11-15T15:38:58;14.70;66.80
28763;DHT22;15918;51.270;6.522;2022-11-15T15:41:23;14.70;66.80
28763;DHT22;15918;51.270;6.522;2022-11-15T15:43:49;14.70;66.80
28763;DHT22;15918;51.270;6.522;2022-11-15T15:46:17;14.70;66.80
28763;DHT22;15918;51.270;6.522;2022-11-15T15:48:43;14.70;66.80
28763;DHT22;15918;51.270;6.522;2022-11-15T15:51:09;14.70;66.90
28763;DHT22;15918;51.270;6.522;2022-11-15T15:53:35;14.70;66.90
28763;DHT22;15918;51.270;6.522;2022-11-15T15:56:01;14.70;66.90
28763;DHT22;15918;51.270;6.522;2022-11-15T15:58:26;14.70;66.90
28763;DHT22;15918;51.270;6.522;2022-11-15T16:00:52;14.70;67.00
28763;DHT22;15918;51.270;6.522;2022-11-15T16:03:18;14.70;67.10
28763;DHT22;15918;51.270;6.522;2022-11-15T16:05:43;14.70;67.10
28763;DHT22;15918;51.270;6.522;2022-11-15T16:08:27;14.70;67.10
28763;DHT22;15918;51.270;6.522;2022-11-15T16:10:54;14.70;67.00
28763;DHT22;15918;51.270;6.522;2022-11-15T16:13:20;14.70;67.90
28763;DHT22;15918;51.270;6.522;2022-11-15T16:15:48;14.70;67.20
28763;DHT22;15918;51.270;6.522;2022-11-15T16:18:16;14.70;67.10
28763;DHT22;15918;51.270;6.522;2022-11-15T16:20:47;14.70;67.20
28763;DHT22;15918;51.270;6.522;2022-11-15T16:23:16;14.70;67.20
28763;DHT22;15918;51.270;6.522;2022-11-15T16:28:26;14.70;67.30
28763;DHT22;15918;51.270;6.522;2022-11-15T16:31:18;14.70;67.30
28763;DHT22;15918;51.270;6.522;2022-11-15T16:33:46;14.70;67.20
28763;DHT22;15918;51.270;6.522;2022-11-15T16:36:23;14.70;67.40
28763;DHT22;15918;51.270;6.522;2022-11-15T16:38:53;14.70;67.30
28763;DHT22;15918;51.270;6.522;2022-11-15T16:41:19;14.70;67.40
28763;DHT22;15918;51.270;6.522;2022-11-15T16:43:45;14.70;67.40
28763;DHT22;15918;51.270;6.522;2022-11-15T16:46:23;14.70;67.40
28763;DHT22;15918;51.270;6.522;2022-11-15T16:48:49;14.70;67.30
28763;DHT22;15918;51.270;6.522;2022-11-15T16:51:15;14.70;67.40
28763;DHT22;15918;51.270;6.522;2022-11-15T16:53:42;14.70;67.40
28763;DHT22;15918;51.270;6.522;2022-11-15T16:56:25;14.70;67.40
28763;DHT22;15918;51.270;6.522;2022-11-15T16:58:55;14.70;67.30
28763;DHT22;15918;51.270;6.522;2022-11-15T17:01:43;14.70;67.40
28763;DHT22;15918;51.270;6.522;2022-11-15T17:04:16;14.70;67.30
28763;DHT22;15918;51.270;6.522;2022-11-15T17:06:44;14.70;67.50
28763;DHT22;15918;51.270;6.522;2022-11-15T17:09:14;14.70;67.40
28763;DHT22;15918;51.270;6.522;2022-11-15T17:11:41;14.70;67.40
28763;DHT22;15918;51.270;6.522;2022-11-15T17:14:07;14.70;67.40
28763;DHT22;15918;51.270;6.522;2022-11-15T17:16:33;14.70;67.50
28763;DHT22;15918;51.270;6.522;2022-11-15T17:19:00;14.70;67.50
28763;DHT22;15918;51.270;6.522;2022-11-15T17:21:26;14.70;67.50
28763;DHT22;15918;51.270;6.522;2022-11-15T17:23:53;14.70;67.50
28763;DHT22;15918;51.270;6.522;2022-11-15T17:26:19;14.70;67.60
28763;DHT22;15918;51.270;6.522;2022-11-15T17:28:44;14.80;67.60
28763;DHT22;15918;51.270;6.522;2022-11-15T17:31:11;14.80;67.70
28763;DHT22;15918;51.270;6.522;2022-11-15T17:33:38;14.70;67.70
28763;DHT22;15918;51.270;6.522;2022-11-15T17:36:07;14.70;67.70
28763;DHT22;15918;51.270;6.522;2022-11-15T17:38:33;14.80;67.80
28763;DHT22;15918;51.270;6.522;2022-11-15T17:41:09;14.80;67.90
28763;DHT22;15918;51.270;6.522;2022-11-15T17:43:36;14.80;68.00
28763;DHT22;15918;51.270;6.522;2022-11-15T17:46:04;14.70;68.00
28763;DHT22;15918;51.270;6.522;2022-11-15T17:48:30;14.80;68.10
28763;DHT22;15918;51.270;6.522;2022-11-15T17:50:58;14.80;68.10
28763;DHT22;15918;51.270;6.522;2022-11-15T17:53:24;14.80;68.20
28763;DHT22;15918;51.270;6.522;2022-11-15T17:55:50;14.80;68.30